FW1932 Weather Reports


time (UTC)temp
C
wind
direction
speed
KPH
gust
KPH
rain 1hr
cm
rain 24hr
cm
rain mn
cm
humidity
%
barometer
mb
20190426114604 9 238 3.2 9.7 0.00 0.79 0.79 83 1017.5
20190426113150 8 264 0.0 9.7 0.00 0.79 0.79 83 1017.6
20190426111532 8 238 1.6 11.3 0.00 0.79 0.79 86 1017.7
20190426110034 8 252 1.6 11.3 0.00 0.79 0.79 85 1017.7
20190426104601 8 269 0.0 6.4 0.00 0.79 0.79 88 1017.9
20190426103028 8 244 0.0 8.0 0.03 0.79 0.79 87 1017.7
20190426101551 8 254 3.2 6.4 0.03 0.79 0.79 87 1017.7
20190426100050 8 135 0.0 4.8 0.03 0.79 0.79 89 1017.6
20190426094540 7 257 0.0 3.2 0.05 0.79 0.79 88 1017.4
20190426093031 7 247 1.6 4.8 0.03 0.79 0.79 88 1017.3
20190426091546 7 251 1.6 4.8 0.05 0.79 0.79 90 1017.6
20190426090018 7 242 3.2 8.0 0.05 0.79 0.79 90 1017.7
20190426084531 7 244 3.2 8.0 0.05 0.76 0.76 90 1017.5
20190426083039 7 252 0.0 6.4 0.08 0.76 0.76 91 1017.2
20190426081512 7 276 1.6 9.7 0.08 0.71 0.71 91 1017.0
20190426080022 7 251 1.6 8.0 0.08 0.71 0.71 90 1016.9
20190426074511 7 234 1.6 4.8 0.08 0.71 0.71 90 1016.7
20190426073116 7 248 1.6 4.8 0.08 0.69 0.69 91 1016.8
20190426071505 7 244 3.2 6.4 0.10 0.66 0.66 90 1016.7
20190426070002 7 233 1.6 4.8 0.10 0.64 0.64 91 1016.5
20190426064512 7 255 0.0 4.8 0.15 0.61 0.61 92 1016.3
20190426063203 6 247 0.0 6.4 0.18 0.61 0.61 92 1016.0
20190426061729 6 254 0.0 3.2 0.15 0.56 0.56 92 1015.8
20190426060136 6 249 1.6 4.8 0.15 0.53 0.53 92 1016.0
20190426054626 6 236 1.6 4.8 0.05 0.46 0.46 92 1015.7
20190426053211 6 241 0.0 1.6 0.03 0.43 0.43 93 1015.5
20190426051650 6 245 0.0 4.8 0.05 0.43 0.43 92 1015.0
20190426050224 6 155 0.0 0.0 0.10 0.41 0.41 92 1015.1
20190426044708 6 141 0.0 0.0 0.23 0.41 0.41 92 1014.3
20190426043145 6 141 0.0 1.6 0.33 0.41 0.41 90 1014.3
20190426041645 6 254 0.0 6.4 0.33 0.36 0.36 90 1014.1
20190426040145 6 254 1.6 11.3 0.28 0.28 0.28 90 1014.2
20190426034614 6 261 1.6 6.4 0.15 0.15 0.15 90 1014.3
20190426033108 6 247 3.2 9.7 0.08 0.08 0.08 88 1014.3
20190426031551 7 238 3.2 8.0 0.03 0.03 0.03 86 1014.0
20190426030100 7 253 3.2 8.0 0.00 0.00 0.00 84 1013.6
20190426024618 7 255 1.6 6.4 0.00 0.00 0.00 82 1013.6
20190426023059 7 249 0.0 8.0 0.00 0.00 0.00 79 1013.8
20190426021557 7 259 1.6 8.0 0.00 0.00 0.00 78 1013.5
20190426020107 8 224 3.2 9.7 0.00 0.00 0.00 77 1013.4
20190426014556 8 243 1.6 6.4 0.00 0.00 0.00 78 1013.3
20190426013037 8 248 3.2 9.7 0.00 0.00 0.00 77 1013.4
20190426011613 8 242 1.6 8.0 0.00 0.00 0.00 78 1013.4
20190426010048 8 250 4.8 9.7 0.00 0.00 0.00 78 1013.4
20190426004543 8 255 3.2 16.1 0.00 0.00 0.00 78 1013.4
20190426003041 8 237 4.8 14.5 0.00 0.00 0.00 79 1013.4
20190426001536 8 250 3.2 14.5 0.00 0.00 0.00 79 1013.2
20190426000023 8 241 8.0 14.5 0.00 0.00 0.00 79 1013.2
20190425234555 8 242 8.0 16.1 0.00 0.00 0.00 78 1013.2
20190425233020 8 225 8.0 20.9 0.00 0.00 0.00 78 1012.9
20190425231509 9 240 4.8 14.5 0.00 0.00 0.00 76 1012.6
20190425230004 9 230 3.2 11.3 0.00 0.00 0.00 76 1012.5
20190425223221 9 237 4.8 11.3 0.00 0.00 0.00 75 1012.4
20190425221646 9 264 0.0 3.2 0.00 0.00 0.00 76 1011.9
20190425220128 9 242 1.6 6.4 0.00 0.00 0.00 75 1011.8
20190425214646 9 242 3.2 11.3 0.00 0.00 0.00 74 1012.3
20190425213158 9 257 1.6 8.0 0.00 0.00 0.00 74 1012.0
20190425211650 9 248 3.2 12.9 0.00 0.00 0.00 74 1012.1
20190425210118 10 245 4.8 9.7 0.00 0.00 0.00 73 1011.6
20190425204645 10 254 3.2 8.0 0.00 0.00 0.00 71 1011.7
20190425203152 10 249 4.8 11.3 0.00 0.00 0.00 71 1011.7
20190425201641 10 250 8.0 16.1 0.00 0.00 0.00 71 1011.8
20190425200135 10 229 6.4 19.3 0.00 0.00 0.00 72 1012.1
20190425194727 10 243 8.0 17.7 0.00 0.00 0.00 71 1012.2
20190425193150 10 262 4.8 17.7 0.00 0.00 0.00 70 1011.8
20190425191710 11 248 3.2 12.9 0.00 0.00 0.00 68 1011.2
20190425190116 11 255 3.2 12.9 0.00 0.00 0.00 69 1010.9
20190425184602 11 252 4.8 12.9 0.00 0.00 0.00 68 1010.9
20190425183146 11 242 6.4 12.9 0.00 0.00 0.00 69 1010.9
20190425181544 12 254 4.8 16.1 0.00 0.00 0.00 71 1010.3
20190425180050 12 266 4.8 11.3 0.00 0.15 0.00 69 1010.3
20190425174537 13 259 6.4 19.3 0.00 0.15 0.00 68 1009.9
20190425173045 13 282 8.0 19.3 0.00 0.15 0.00 68 1009.7
20190425171556 14 194 3.2 16.1 0.00 0.15 0.00 67 1009.2
20190425170048 15 277 4.8 12.9 0.00 0.38 0.00 65 1008.9
20190425164546 15 248 8.0 20.9 0.00 0.38 0.00 64 1008.4
20190425163124 16 38 11.3 20.9 0.00 0.38 0.00 60 1008.4
20190425161538 17 253 6.4 17.7 0.00 0.38 0.00 55 1007.9
20190425160059 18 277 9.7 20.9 0.00 0.61 0.00 51 1007.5
20190425154529 18 220 6.4 17.7 0.00 0.61 0.00 50 1007.1
20190425153053 19 209 4.8 17.7 0.00 0.61 0.00 49 1006.9
20190425151619 22 284 6.4 14.5 0.00 0.61 0.00 48 1006.5
20190425150035 22 276 0.0 8.0 0.00 0.64 0.00 54 1006.1
20190425144535 21 127 0.0 0.0 0.00 0.64 0.00 59 1006.2
20190425143020 20 123 0.0 0.0 0.00 0.64 0.00 59 1005.7
20190425141526 20 123 0.0 0.0 0.00 0.64 0.00 58 1005.7
20190425140035 21 124 0.0 1.6 0.00 0.64 0.00 58 1005.6
20190425134513 21 72 0.0 4.8 0.00 0.64 0.00 58 1005.5
20190425133011 21 73 0.0 6.4 0.00 0.64 0.00 57 1005.7
20190425131521 21 87 0.0 3.2 0.00 0.64 0.00 57 1005.9
20190425130005 21 75 0.0 3.2 0.00 0.64 0.00 56 1006.2
20190425124504 21 81 0.0 3.2 0.00 0.64 0.00 56 1006.3
20190425123146 20 74 0.0 8.0 0.00 0.64 0.00 59 1006.4
20190425121713 20 77 0.0 8.0 0.00 0.64 0.00 59 1006.5
20190425120210 19 77 0.0 4.8 0.00 0.64 0.00 61 1006.5